sensor_id;sensor_type;location;lat;lon;timestamp;P1;durP1;ratioP1;P2;durP2;ratioP2
19733;SDS011;10018;51.230;7.860;2023-09-18T00:01:52;12.07;;;8.83;;
19733;SDS011;10018;51.230;7.860;2023-09-18T00:04:20;9.60;;;7.80;;
19733;SDS011;10018;51.230;7.860;2023-09-18T00:06:45;12.97;;;8.20;;
19733;SDS011;10018;51.230;7.860;2023-09-18T00:09:11;9.90;;;7.67;;
19733;SDS011;10018;51.230;7.860;2023-09-18T00:11:38;14.77;;;8.50;;
19733;SDS011;10018;51.230;7.860;2023-09-18T00:14:04;16.20;;;8.63;;
19733;SDS011;10018;51.230;7.860;2023-09-18T00:16:30;12.57;;;8.53;;
19733;SDS011;10018;51.230;7.860;2023-09-18T00:18:56;13.60;;;8.73;;
19733;SDS011;10018;51.230;7.860;2023-09-18T00:21:24;18.03;;;8.73;;
19733;SDS011;10018;51.230;7.860;2023-09-18T00:23:50;14.20;;;8.43;;
19733;SDS011;10018;51.230;7.860;2023-09-18T00:26:16;12.00;;;8.13;;
19733;SDS011;10018;51.230;7.860;2023-09-18T00:28:42;14.30;;;8.47;;
19733;SDS011;10018;51.230;7.860;2023-09-18T00:31:07;12.37;;;8.87;;
19733;SDS011;10018;51.230;7.860;2023-09-18T00:33:33;14.10;;;9.60;;
19733;SDS011;10018;51.230;7.860;2023-09-18T00:35:59;11.77;;;9.13;;
19733;SDS011;10018;51.230;7.860;2023-09-18T00:38:24;17.10;;;10.00;;
19733;SDS011;10018;51.230;7.860;2023-09-18T00:40:50;12.83;;;9.63;;
19733;SDS011;10018;51.230;7.860;2023-09-18T00:43:15;18.53;;;9.93;;
19733;SDS011;10018;51.230;7.860;2023-09-18T00:45:44;15.90;;;9.60;;
19733;SDS011;10018;51.230;7.860;2023-09-18T00:48:16;15.70;;;9.40;;
19733;SDS011;10018;51.230;7.860;2023-09-18T00:50:46;16.20;;;8.50;;
19733;SDS011;10018;51.230;7.860;2023-09-18T00:53:17;15.33;;;10.13;;
19733;SDS011;10018;51.230;7.860;2023-09-18T00:55:48;14.90;;;9.47;;
19733;SDS011;10018;51.230;7.860;2023-09-18T00:58:17;14.70;;;9.93;;
19733;SDS011;10018;51.230;7.860;2023-09-18T01:00:44;16.07;;;10.30;;
19733;SDS011;10018;51.230;7.860;2023-09-18T01:03:09;17.00;;;9.73;;
19733;SDS011;10018;51.230;7.860;2023-09-18T01:05:36;14.13;;;10.13;;
19733;SDS011;10018;51.230;7.860;2023-09-18T01:08:01;13.63;;;9.80;;
19733;SDS011;10018;51.230;7.860;2023-09-18T01:10:34;17.77;;;10.10;;
19733;SDS011;10018;51.230;7.860;2023-09-18T01:13:08;14.63;;;9.70;;
19733;SDS011;10018;51.230;7.860;2023-09-18T01:15:47;21.37;;;10.73;;
19733;SDS011;10018;51.230;7.860;2023-09-18T01:18:16;15.60;;;10.03;;
19733;SDS011;10018;51.230;7.860;2023-09-18T01:20:43;15.67;;;10.10;;
19733;SDS011;10018;51.230;7.860;2023-09-18T01:23:09;15.37;;;10.50;;
19733;SDS011;10018;51.230;7.860;2023-09-18T01:25:36;14.87;;;9.73;;
19733;SDS011;10018;51.230;7.860;2023-09-18T01:28:02;17.50;;;9.77;;
19733;SDS011;10018;51.230;7.860;2023-09-18T01:30:28;14.37;;;9.90;;
19733;SDS011;10018;51.230;7.860;2023-09-18T01:32:54;15.40;;;9.57;;
19733;SDS011;10018;51.230;7.860;2023-09-18T01:35:22;13.90;;;9.30;;
19733;SDS011;10018;51.230;7.860;2023-09-18T01:37:54;16.33;;;9.23;;
19733;SDS011;10018;51.230;7.860;2023-09-18T01:40:21;15.63;;;10.10;;
19733;SDS011;10018;51.230;7.860;2023-09-18T01:42:48;13.27;;;9.43;;
19733;SDS011;10018;51.230;7.860;2023-09-18T01:45:14;17.03;;;9.37;;
19733;SDS011;10018;51.230;7.860;2023-09-18T01:47:39;17.40;;;9.93;;
19733;SDS011;10018;51.230;7.860;2023-09-18T01:50:05;13.03;;;9.00;;
19733;SDS011;10018;51.230;7.860;2023-09-18T01:52:31;19.23;;;10.47;;
19733;SDS011;10018;51.230;7.860;2023-09-18T01:54:57;16.40;;;9.10;;
19733;SDS011;10018;51.230;7.860;2023-09-18T01:57:23;15.00;;;9.47;;
19733;SDS011;10018;51.230;7.860;2023-09-18T01:59:50;15.07;;;9.33;;
19733;SDS011;10018;51.230;7.860;2023-09-18T02:02:16;16.77;;;9.40;;
19733;SDS011;10018;51.230;7.860;2023-09-18T02:04:42;16.53;;;9.13;;
19733;SDS011;10018;51.230;7.860;2023-09-18T02:07:08;11.90;;;8.93;;
19733;SDS011;10018;51.230;7.860;2023-09-18T02:09:34;14.43;;;9.50;;
19733;SDS011;10018;51.230;7.860;2023-09-18T02:12:00;15.23;;;9.73;;
19733;SDS011;10018;51.230;7.860;2023-09-18T02:14:25;12.53;;;9.17;;
19733;SDS011;10018;51.230;7.860;2023-09-18T02:16:51;13.90;;;9.37;;
19733;SDS011;10018;51.230;7.860;2023-09-18T02:19:17;14.37;;;9.10;;
19733;SDS011;10018;51.230;7.860;2023-09-18T02:21:43;16.13;;;9.43;;
19733;SDS011;10018;51.230;7.860;2023-09-18T02:24:09;21.07;;;10.03;;
19733;SDS011;10018;51.230;7.860;2023-09-18T02:26:37;16.57;;;9.67;;
19733;SDS011;10018;51.230;7.860;2023-09-18T02:29:05;19.40;;;10.00;;
19733;SDS011;10018;51.230;7.860;2023-09-18T02:31:34;15.30;;;9.07;;
19733;SDS011;10018;51.230;7.860;2023-09-18T02:34:02;12.63;;;9.50;;
19733;SDS011;10018;51.230;7.860;2023-09-18T02:36:27;16.03;;;9.97;;
19733;SDS011;10018;51.230;7.860;2023-09-18T02:38:55;15.30;;;9.73;;
19733;SDS011;10018;51.230;7.860;2023-09-18T02:41:21;12.77;;;9.37;;
19733;SDS011;10018;51.230;7.860;2023-09-18T02:43:46;19.33;;;10.07;;
19733;SDS011;10018;51.230;7.860;2023-09-18T02:46:12;15.10;;;9.30;;
19733;SDS011;10018;51.230;7.860;2023-09-18T02:48:39;16.87;;;9.63;;
19733;SDS011;10018;51.230;7.860;2023-09-18T02:51:05;15.47;;;9.50;;
19733;SDS011;10018;51.230;7.860;2023-09-18T02:53:33;16.77;;;9.80;;
19733;SDS011;10018;51.230;7.860;2023-09-18T02:55:59;14.67;;;10.17;;
19733;SDS011;10018;51.230;7.860;2023-09-18T02:58:25;15.93;;;10.30;;
19733;SDS011;10018;51.230;7.860;2023-09-18T03:00:53;16.07;;;9.10;;
19733;SDS011;10018;51.230;7.860;2023-09-18T03:03:20;12.43;;;9.30;;
19733;SDS011;10018;51.230;7.860;2023-09-18T03:05:45;16.70;;;9.27;;
19733;SDS011;10018;51.230;7.860;2023-09-18T03:08:13;13.87;;;8.80;;
19733;SDS011;10018;51.230;7.860;2023-09-18T03:10:41;13.23;;;8.20;;
19733;SDS011;10018;51.230;7.860;2023-09-18T03:13:08;14.93;;;8.73;;
19733;SDS011;10018;51.230;7.860;2023-09-18T03:15:35;12.13;;;8.20;;
19733;SDS011;10018;51.230;7.860;2023-09-18T03:18:02;15.27;;;8.10;;
19733;SDS011;10018;51.230;7.860;2023-09-18T03:20:32;15.60;;;8.63;;
19733;SDS011;10018;51.230;7.860;2023-09-18T03:22:58;13.73;;;7.93;;
19733;SDS011;10018;51.230;7.860;2023-09-18T03:25:25;12.53;;;8.20;;
19733;SDS011;10018;51.230;7.860;2023-09-18T03:27:51;16.30;;;7.70;;
19733;SDS011;10018;51.230;7.860;2023-09-18T03:30:19;15.57;;;7.40;;
19733;SDS011;10018;51.230;7.860;2023-09-18T03:32:46;13.67;;;6.50;;
19733;SDS011;10018;51.230;7.860;2023-09-18T03:35:13;12.70;;;5.90;;
19733;SDS011;10018;51.230;7.860;2023-09-18T03:37:45;11.03;;;5.70;;
19733;SDS011;10018;51.230;7.860;2023-09-18T03:40:11;11.93;;;5.53;;
19733;SDS011;10018;51.230;7.860;2023-09-18T03:42:36;9.73;;;5.00;;
19733;SDS011;10018;51.230;7.860;2023-09-18T03:45:03;10.67;;;5.10;;
19733;SDS011;10018;51.230;7.860;2023-09-18T03:47:36;14.10;;;5.30;;
19733;SDS011;10018;51.230;7.860;2023-09-18T03:50:02;9.80;;;4.83;;
19733;SDS011;10018;51.230;7.860;2023-09-18T03:52:28;10.30;;;4.90;;
19733;SDS011;10018;51.230;7.860;2023-09-18T03:54:54;15.80;;;5.27;;
19733;SDS011;10018;51.230;7.860;2023-09-18T03:57:20;11.27;;;4.77;;
19733;SDS011;10018;51.230;7.860;2023-09-18T03:59:45;14.77;;;4.50;;
19733;SDS011;10018;51.230;7.860;2023-09-18T04:02:11;8.87;;;4.60;;
19733;SDS011;10018;51.230;7.860;2023-09-18T04:04:36;13.73;;;4.70;;
19733;SDS011;10018;51.230;7.860;2023-09-18T04:07:05;12.37;;;5.03;;
19733;SDS011;10018;51.230;7.860;2023-09-18T04:09:31;10.13;;;4.20;;
19733;SDS011;10018;51.230;7.860;2023-09-18T04:11:57;12.47;;;4.70;;
19733;SDS011;10018;51.230;7.860;2023-09-18T04:14:23;8.03;;;4.40;;
19733;SDS011;10018;51.230;7.860;2023-09-18T04:16:50;13.33;;;4.97;;
19733;SDS011;10018;51.230;7.860;2023-09-18T04:19:19;11.33;;;4.70;;
19733;SDS011;10018;51.230;7.860;2023-09-18T04:21:44;10.90;;;4.57;;
19733;SDS011;10018;51.230;7.860;2023-09-18T04:24:10;18.97;;;4.50;;
19733;SDS011;10018;51.230;7.860;2023-09-18T04:26:35;14.40;;;4.40;;
19733;SDS011;10018;51.230;7.860;2023-09-18T04:29:03;12.80;;;3.90;;
19733;SDS011;10018;51.230;7.860;2023-09-18T04:31:28;13.73;;;3.63;;
19733;SDS011;10018;51.230;7.860;2023-09-18T04:33:54;9.43;;;3.83;;
19733;SDS011;10018;51.230;7.860;2023-09-18T04:36:25;11.80;;;3.53;;
19733;SDS011;10018;51.230;7.860;2023-09-18T04:38:51;10.53;;;3.80;;
19733;SDS011;10018;51.230;7.860;2023-09-18T04:41:16;8.50;;;3.30;;
19733;SDS011;10018;51.230;7.860;2023-09-18T04:43:44;12.27;;;3.80;;
19733;SDS011;10018;51.230;7.860;2023-09-18T04:46:10;10.50;;;4.53;;
19733;SDS011;10018;51.230;7.860;2023-09-18T04:48:36;13.30;;;4.03;;
19733;SDS011;10018;51.230;7.860;2023-09-18T04:51:03;10.87;;;4.37;;
19733;SDS011;10018;51.230;7.860;2023-09-18T04:53:30;12.20;;;3.97;;
19733;SDS011;10018;51.230;7.860;2023-09-18T04:55:56;15.53;;;4.37;;
19733;SDS011;10018;51.230;7.860;2023-09-18T04:58:22;10.93;;;3.63;;
19733;SDS011;10018;51.230;7.860;2023-09-18T05:00:57;10.13;;;3.93;;
19733;SDS011;10018;51.230;7.860;2023-09-18T05:03:24;15.23;;;4.30;;
19733;SDS011;10018;51.230;7.860;2023-09-18T05:05:51;12.80;;;3.87;;
19733;SDS011;10018;51.230;7.860;2023-09-18T05:08:17;13.47;;;4.17;;
19733;SDS011;10018;51.230;7.860;2023-09-18T05:10:44;16.33;;;4.00;;
19733;SDS011;10018;51.230;7.860;2023-09-18T05:13:10;14.83;;;4.50;;
19733;SDS011;10018;51.230;7.860;2023-09-18T05:15:37;11.00;;;4.20;;
19733;SDS011;10018;51.230;7.860;2023-09-18T05:18:03;13.80;;;4.17;;
19733;SDS011;10018;51.230;7.860;2023-09-18T05:20:29;12.87;;;4.57;;
19733;SDS011;10018;51.230;7.860;2023-09-18T05:22:55;10.73;;;3.90;;
19733;SDS011;10018;51.230;7.860;2023-09-18T05:25:22;12.03;;;4.23;;
19733;SDS011;10018;51.230;7.860;2023-09-18T05:27:50;8.63;;;3.93;;
19733;SDS011;10018;51.230;7.860;2023-09-18T05:30:24;12.80;;;4.50;;
19733;SDS011;10018;51.230;7.860;2023-09-18T05:32:56;11.27;;;3.87;;
19733;SDS011;10018;51.230;7.860;2023-09-18T05:35:27;12.10;;;4.00;;
19733;SDS011;10018;51.230;7.860;2023-09-18T05:37:53;9.73;;;4.20;;
19733;SDS011;10018;51.230;7.860;2023-09-18T05:40:21;11.93;;;4.00;;
19733;SDS011;10018;51.230;7.860;2023-09-18T05:42:51;9.87;;;4.27;;
19733;SDS011;10018;51.230;7.860;2023-09-18T05:45:18;12.07;;;4.13;;
19733;SDS011;10018;51.230;7.860;2023-09-18T05:47:43;10.53;;;4.13;;
19733;SDS011;10018;51.230;7.860;2023-09-18T05:50:10;10.27;;;3.87;;
19733;SDS011;10018;51.230;7.860;2023-09-18T05:52:41;13.67;;;3.63;;
19733;SDS011;10018;51.230;7.860;2023-09-18T05:55:10;10.67;;;3.70;;
19733;SDS011;10018;51.230;7.860;2023-09-18T05:57:37;12.40;;;3.60;;
19733;SDS011;10018;51.230;7.860;2023-09-18T06:00:03;11.27;;;4.10;;
19733;SDS011;10018;51.230;7.860;2023-09-18T06:02:31;11.40;;;3.57;;
19733;SDS011;10018;51.230;7.860;2023-09-18T06:04:57;12.77;;;4.03;;
19733;SDS011;10018;51.230;7.860;2023-09-18T06:07:27;13.27;;;3.93;;
19733;SDS011;10018;51.230;7.860;2023-09-18T06:09:54;13.20;;;3.57;;
19733;SDS011;10018;51.230;7.860;2023-09-18T06:12:19;9.77;;;3.50;;
19733;SDS011;10018;51.230;7.860;2023-09-18T06:14:46;12.20;;;4.13;;
19733;SDS011;10018;51.230;7.860;2023-09-18T06:17:13;12.27;;;3.70;;
19733;SDS011;10018;51.230;7.860;2023-09-18T06:19:39;8.77;;;3.33;;
19733;SDS011;10018;51.230;7.860;2023-09-18T06:22:05;10.30;;;3.83;;
19733;SDS011;10018;51.230;7.860;2023-09-18T06:24:32;11.17;;;3.50;;
19733;SDS011;10018;51.230;7.860;2023-09-18T06:27:02;12.67;;;3.87;;
19733;SDS011;10018;51.230;7.860;2023-09-18T06:29:29;7.17;;;3.27;;
19733;SDS011;10018;51.230;7.860;2023-09-18T06:31:55;9.37;;;3.63;;
19733;SDS011;10018;51.230;7.860;2023-09-18T06:34:21;9.77;;;3.40;;
19733;SDS011;10018;51.230;7.860;2023-09-18T06:36:46;11.83;;;3.60;;
19733;SDS011;10018;51.230;7.860;2023-09-18T06:39:12;10.37;;;3.60;;
19733;SDS011;10018;51.230;7.860;2023-09-18T06:41:38;8.70;;;3.30;;
19733;SDS011;10018;51.230;7.860;2023-09-18T06:44:03;13.17;;;4.20;;
19733;SDS011;10018;51.230;7.860;2023-09-18T06:46:29;8.10;;;3.00;;
19733;SDS011;10018;51.230;7.860;2023-09-18T06:48:55;9.03;;;3.23;;
19733;SDS011;10018;51.230;7.860;2023-09-18T06:51:21;13.23;;;3.13;;
19733;SDS011;10018;51.230;7.860;2023-09-18T06:53:50;10.03;;;2.93;;
19733;SDS011;10018;51.230;7.860;2023-09-18T06:56:16;13.07;;;2.77;;
19733;SDS011;10018;51.230;7.860;2023-09-18T06:58:41;13.10;;;3.20;;
19733;SDS011;10018;51.230;7.860;2023-09-18T07:01:07;9.77;;;2.90;;
19733;SDS011;10018;51.230;7.860;2023-09-18T07:03:34;13.80;;;2.93;;
19733;SDS011;10018;51.230;7.860;2023-09-18T07:06:05;9.07;;;2.83;;
19733;SDS011;10018;51.230;7.860;2023-09-18T07:08:31;7.93;;;2.90;;
19733;SDS011;10018;51.230;7.860;2023-09-18T07:10:57;6.37;;;2.53;;
19733;SDS011;10018;51.230;7.860;2023-09-18T07:13:26;11.63;;;2.90;;
19733;SDS011;10018;51.230;7.860;2023-09-18T07:15:51;6.73;;;2.60;;
19733;SDS011;10018;51.230;7.860;2023-09-18T07:18:17;10.83;;;2.80;;
19733;SDS011;10018;51.230;7.860;2023-09-18T07:20:45;7.10;;;2.60;;
19733;SDS011;10018;51.230;7.860;2023-09-18T07:23:11;8.83;;;2.80;;
19733;SDS011;10018;51.230;7.860;2023-09-18T07:25:37;11.57;;;2.70;;
19733;SDS011;10018;51.230;7.860;2023-09-18T07:28:05;8.80;;;2.60;;
19733;SDS011;10018;51.230;7.860;2023-09-18T07:30:31;7.53;;;2.20;;
19733;SDS011;10018;51.230;7.860;2023-09-18T07:32:58;10.30;;;2.40;;
19733;SDS011;10018;51.230;7.860;2023-09-18T07:35:26;8.80;;;2.60;;
19733;SDS011;10018;51.230;7.860;2023-09-18T07:37:52;7.37;;;2.20;;
19733;SDS011;10018;51.230;7.860;2023-09-18T07:40:20;8.60;;;2.20;;
19733;SDS011;10018;51.230;7.860;2023-09-18T07:42:46;7.67;;;2.10;;
19733;SDS011;10018;51.230;7.860;2023-09-18T07:45:12;9.13;;;2.50;;
19733;SDS011;10018;51.230;7.860;2023-09-18T07:47:38;10.43;;;2.23;;
19733;SDS011;10018;51.230;7.860;2023-09-18T07:50:04;7.27;;;2.47;;
19733;SDS011;10018;51.230;7.860;2023-09-18T07:52:31;9.23;;;2.40;;
19733;SDS011;10018;51.230;7.860;2023-09-18T07:54:57;10.43;;;2.50;;
19733;SDS011;10018;51.230;7.860;2023-09-18T07:57:23;8.00;;;2.20;;
19733;SDS011;10018;51.230;7.860;2023-09-18T07:59:50;6.37;;;2.07;;
19733;SDS011;10018;51.230;7.860;2023-09-18T08:02:16;8.63;;;2.43;;
19733;SDS011;10018;51.230;7.860;2023-09-18T08:04:42;8.20;;;2.20;;
19733;SDS011;10018;51.230;7.860;2023-09-18T08:07:08;7.67;;;2.00;;
19733;SDS011;10018;51.230;7.860;2023-09-18T08:09:34;11.70;;;2.13;;
19733;SDS011;10018;51.230;7.860;2023-09-18T08:12:03;6.60;;;2.00;;
19733;SDS011;10018;51.230;7.860;2023-09-18T08:14:30;9.17;;;2.50;;
19733;SDS011;10018;51.230;7.860;2023-09-18T08:16:56;4.73;;;2.03;;
19733;SDS011;10018;51.230;7.860;2023-09-18T08:19:26;8.43;;;1.93;;
19733;SDS011;10018;51.230;7.860;2023-09-18T08:21:57;11.20;;;2.37;;
19733;SDS011;10018;51.230;7.860;2023-09-18T08:24:23;4.80;;;1.80;;
19733;SDS011;10018;51.230;7.860;2023-09-18T08:26:49;4.53;;;1.70;;
19733;SDS011;10018;51.230;7.860;2023-09-18T08:29:14;5.73;;;1.97;;
19733;SDS011;10018;51.230;7.860;2023-09-18T08:31:40;7.20;;;2.27;;
19733;SDS011;10018;51.230;7.860;2023-09-18T08:34:06;10.53;;;2.07;;
19733;SDS011;10018;51.230;7.860;2023-09-18T08:36:32;7.63;;;2.20;;
19733;SDS011;10018;51.230;7.860;2023-09-18T08:38:58;8.27;;;2.17;;
19733;SDS011;10018;51.230;7.860;2023-09-18T08:41:24;6.20;;;1.93;;
19733;SDS011;10018;51.230;7.860;2023-09-18T08:43:53;7.87;;;1.90;;
19733;SDS011;10018;51.230;7.860;2023-09-18T08:46:24;4.77;;;1.80;;
19733;SDS011;10018;51.230;7.860;2023-09-18T08:48:55;8.67;;;1.87;;
19733;SDS011;10018;51.230;7.860;2023-09-18T08:51:23;7.70;;;1.67;;
19733;SDS011;10018;51.230;7.860;2023-09-18T08:53:49;4.87;;;1.43;;
19733;SDS011;10018;51.230;7.860;2023-09-18T08:56:15;6.03;;;1.90;;
19733;SDS011;10018;51.230;7.860;2023-09-18T08:58:43;4.87;;;1.83;;
19733;SDS011;10018;51.230;7.860;2023-09-18T09:01:09;7.63;;;1.73;;
19733;SDS011;10018;51.230;7.860;2023-09-18T09:03:39;7.30;;;1.77;;
19733;SDS011;10018;51.230;7.860;2023-09-18T09:06:07;5.63;;;1.60;;
19733;SDS011;10018;51.230;7.860;2023-09-18T09:08:34;4.70;;;1.60;;
19733;SDS011;10018;51.230;7.860;2023-09-18T09:11:00;6.10;;;1.67;;
19733;SDS011;10018;51.230;7.860;2023-09-18T09:13:26;5.27;;;1.87;;
19733;SDS011;10018;51.230;7.860;2023-09-18T09:15:52;5.13;;;1.40;;
19733;SDS011;10018;51.230;7.860;2023-09-18T09:18:23;8.57;;;1.67;;
19733;SDS011;10018;51.230;7.860;2023-09-18T09:20:59;6.17;;;1.57;;
19733;SDS011;10018;51.230;7.860;2023-09-18T09:23:44;4.37;;;1.73;;
19733;SDS011;10018;51.230;7.860;2023-09-18T09:26:18;7.07;;;1.50;;
19733;SDS011;10018;51.230;7.860;2023-09-18T09:28:45;6.20;;;1.50;;
19733;SDS011;10018;51.230;7.860;2023-09-18T09:31:11;5.47;;;1.70;;
19733;SDS011;10018;51.230;7.860;2023-09-18T09:33:52;6.23;;;1.43;;
19733;SDS011;10018;51.230;7.860;2023-09-18T09:36:19;5.20;;;1.30;;
19733;SDS011;10018;51.230;7.860;2023-09-18T09:38:45;6.47;;;1.60;;
19733;SDS011;10018;51.230;7.860;2023-09-18T09:41:14;6.27;;;1.60;;
19733;SDS011;10018;51.230;7.860;2023-09-18T09:43:42;7.90;;;1.43;;
19733;SDS011;10018;51.230;7.860;2023-09-18T09:46:14;4.07;;;1.40;;
19733;SDS011;10018;51.230;7.860;2023-09-18T09:49:05;5.10;;;1.50;;
19733;SDS011;10018;51.230;7.860;2023-09-18T09:51:32;5.73;;;1.50;;
19733;SDS011;10018;51.230;7.860;2023-09-18T09:53:59;6.60;;;1.63;;
19733;SDS011;10018;51.230;7.860;2023-09-18T09:56:42;5.67;;;1.80;;
19733;SDS011;10018;51.230;7.860;2023-09-18T09:59:11;8.13;;;1.60;;
19733;SDS011;10018;51.230;7.860;2023-09-18T10:01:38;6.07;;;1.67;;
19733;SDS011;10018;51.230;7.860;2023-09-18T10:04:07;7.60;;;1.30;;
19733;SDS011;10018;51.230;7.860;2023-09-18T10:06:35;5.43;;;1.10;;
19733;SDS011;10018;51.230;7.860;2023-09-18T10:09:04;6.47;;;1.83;;
19733;SDS011;10018;51.230;7.860;2023-09-18T10:11:33;5.57;;;1.40;;
19733;SDS011;10018;51.230;7.860;2023-09-18T10:14:09;5.40;;;1.60;;
19733;SDS011;10018;51.230;7.860;2023-09-18T10:16:41;5.70;;;1.70;;
19733;SDS011;10018;51.230;7.860;2023-09-18T10:22:08;5.80;;;1.53;;
19733;SDS011;10018;51.230;7.860;2023-09-18T10:24:53;2.93;;;1.17;;
19733;SDS011;10018;51.230;7.860;2023-09-18T10:27:25;3.47;;;1.40;;
19733;SDS011;10018;51.230;7.860;2023-09-18T10:29:51;7.50;;;1.77;;
19733;SDS011;10018;51.230;7.860;2023-09-18T10:32:19;3.93;;;1.03;;
19733;SDS011;10018;51.230;7.860;2023-09-18T10:34:47;5.03;;;1.50;;
19733;SDS011;10018;51.230;7.860;2023-09-18T10:37:13;4.73;;;1.70;;
19733;SDS011;10018;51.230;7.860;2023-09-18T10:39:40;3.77;;;1.40;;
19733;SDS011;10018;51.230;7.860;2023-09-18T10:42:09;9.33;;;1.80;;
19733;SDS011;10018;51.230;7.860;2023-09-18T10:44:35;7.10;;;1.70;;
19733;SDS011;10018;51.230;7.860;2023-09-18T10:47:05;3.97;;;1.50;;
19733;SDS011;10018;51.230;7.860;2023-09-18T10:49:35;4.40;;;1.40;;
19733;SDS011;10018;51.230;7.860;2023-09-18T10:52:01;3.30;;;1.30;;
19733;SDS011;10018;51.230;7.860;2023-09-18T10:54:30;6.27;;;1.73;;
19733;SDS011;10018;51.230;7.860;2023-09-18T10:56:59;5.60;;;1.60;;
19733;SDS011;10018;51.230;7.860;2023-09-18T10:59:27;3.43;;;1.40;;
19733;SDS011;10018;51.230;7.860;2023-09-18T11:01:53;6.27;;;1.60;;
19733;SDS011;10018;51.230;7.860;2023-09-18T11:04:19;7.03;;;1.60;;
19733;SDS011;10018;51.230;7.860;2023-09-18T11:07:04;3.67;;;1.50;;
19733;SDS011;10018;51.230;7.860;2023-09-18T11:09:31;3.50;;;1.40;;
19733;SDS011;10018;51.230;7.860;2023-09-18T11:12:05;4.53;;;1.60;;
19733;SDS011;10018;51.230;7.860;2023-09-18T11:17:29;4.10;;;1.50;;
19733;SDS011;10018;51.230;7.860;2023-09-18T11:20:06;4.77;;;1.50;;
19733;SDS011;10018;51.230;7.860;2023-09-18T11:22:34;7.13;;;1.33;;
19733;SDS011;10018;51.230;7.860;2023-09-18T11:28:02;3.67;;;1.37;;
19733;SDS011;10018;51.230;7.860;2023-09-18T11:30:32;4.80;;;1.60;;
19733;SDS011;10018;51.230;7.860;2023-09-18T11:33:04;2.70;;;1.10;;
19733;SDS011;10018;51.230;7.860;2023-09-18T11:35:31;4.00;;;1.20;;
19733;SDS011;10018;51.230;7.860;2023-09-18T11:38:05;5.57;;;1.50;;
19733;SDS011;10018;51.230;7.860;2023-09-18T11:40:33;5.40;;;1.50;;
19733;SDS011;10018;51.230;7.860;2023-09-18T11:45:49;6.80;;;1.47;;
19733;SDS011;10018;51.230;7.860;2023-09-18T11:48:16;4.03;;;1.50;;
19733;SDS011;10018;51.230;7.860;2023-09-18T11:50:43;5.00;;;1.50;;
19733;SDS011;10018;51.230;7.860;2023-09-18T11:53:10;2.70;;;1.47;;
19733;SDS011;10018;51.230;7.860;2023-09-18T11:55:38;4.37;;;1.50;;
19733;SDS011;10018;51.230;7.860;2023-09-18T11:58:07;2.67;;;1.23;;
19733;SDS011;10018;51.230;7.860;2023-09-18T12:00:36;3.57;;;1.20;;
19733;SDS011;10018;51.230;7.860;2023-09-18T12:03:20;5.27;;;1.30;;
19733;SDS011;10018;51.230;7.860;2023-09-18T12:05:57;5.23;;;1.27;;
19733;SDS011;10018;51.230;7.860;2023-09-18T12:08:26;3.80;;;1.40;;
19733;SDS011;10018;51.230;7.860;2023-09-18T12:10:55;6.53;;;1.40;;
19733;SDS011;10018;51.230;7.860;2023-09-18T12:13:21;4.43;;;1.20;;
19733;SDS011;10018;51.230;7.860;2023-09-18T12:15:52;4.00;;;1.40;;
19733;SDS011;10018;51.230;7.860;2023-09-18T12:18:30;6.90;;;1.30;;
19733;SDS011;10018;51.230;7.860;2023-09-18T12:20:57;3.60;;;1.37;;
19733;SDS011;10018;51.230;7.860;2023-09-18T12:23:26;3.53;;;1.43;;
19733;SDS011;10018;51.230;7.860;2023-09-18T12:25:59;4.37;;;1.20;;
19733;SDS011;10018;51.230;7.860;2023-09-18T12:28:26;4.97;;;1.50;;
19733;SDS011;10018;51.230;7.860;2023-09-18T12:30:54;4.10;;;1.10;;
19733;SDS011;10018;51.230;7.860;2023-09-18T12:33:21;4.50;;;1.40;;
19733;SDS011;10018;51.230;7.860;2023-09-18T12:35:47;3.33;;;1.20;;
19733;SDS011;10018;51.230;7.860;2023-09-18T12:38:15;3.10;;;1.33;;
19733;SDS011;10018;51.230;7.860;2023-09-18T12:40:43;5.37;;;1.50;;
19733;SDS011;10018;51.230;7.860;2023-09-18T12:43:11;3.53;;;1.50;;
19733;SDS011;10018;51.230;7.860;2023-09-18T12:45:40;3.90;;;1.10;;
19733;SDS011;10018;51.230;7.860;2023-09-18T12:48:08;3.20;;;1.37;;
19733;SDS011;10018;51.230;7.860;2023-09-18T12:50:35;4.60;;;1.60;;
19733;SDS011;10018;51.230;7.860;2023-09-18T12:55:37;3.23;;;1.20;;
19733;SDS011;10018;51.230;7.860;2023-09-18T12:58:03;3.50;;;1.20;;
19733;SDS011;10018;51.230;7.860;2023-09-18T13:00:32;4.53;;;1.33;;
19733;SDS011;10018;51.230;7.860;2023-09-18T13:02:59;3.87;;;1.33;;
19733;SDS011;10018;51.230;7.860;2023-09-18T13:05:25;4.30;;;1.30;;
19733;SDS011;10018;51.230;7.860;2023-09-18T13:07:54;5.83;;;1.67;;
19733;SDS011;10018;51.230;7.860;2023-09-18T13:10:21;2.40;;;1.20;;
19733;SDS011;10018;51.230;7.860;2023-09-18T13:12:50;4.03;;;1.40;;
19733;SDS011;10018;51.230;7.860;2023-09-18T13:15:33;6.27;;;1.40;;
19733;SDS011;10018;51.230;7.860;2023-09-18T13:18:00;7.40;;;1.70;;
19733;SDS011;10018;51.230;7.860;2023-09-18T13:20:33;5.27;;;1.40;;
19733;SDS011;10018;51.230;7.860;2023-09-18T13:23:01;3.53;;;1.37;;
19733;SDS011;10018;51.230;7.860;2023-09-18T13:28:01;3.60;;;1.33;;
19733;SDS011;10018;51.230;7.860;2023-09-18T13:30:31;6.33;;;1.40;;
19733;SDS011;10018;51.230;7.860;2023-09-18T13:33:03;3.90;;;1.70;;
19733;SDS011;10018;51.230;7.860;2023-09-18T13:35:41;4.37;;;1.70;;
19733;SDS011;10018;51.230;7.860;2023-09-18T13:38:08;3.30;;;1.30;;
19733;SDS011;10018;51.230;7.860;2023-09-18T13:40:35;7.23;;;1.57;;
19733;SDS011;10018;51.230;7.860;2023-09-18T13:43:02;5.77;;;1.63;;
19733;SDS011;10018;51.230;7.860;2023-09-18T13:45:29;4.77;;;1.70;;
19733;SDS011;10018;51.230;7.860;2023-09-18T13:47:55;4.23;;;1.47;;
19733;SDS011;10018;51.230;7.860;2023-09-18T13:50:21;2.40;;;1.30;;
19733;SDS011;10018;51.230;7.860;2023-09-18T13:52:46;4.70;;;1.27;;
19733;SDS011;10018;51.230;7.860;2023-09-18T13:55:12;4.63;;;1.40;;
19733;SDS011;10018;51.230;7.860;2023-09-18T13:57:40;3.57;;;1.37;;
19733;SDS011;10018;51.230;7.860;2023-09-18T14:00:06;2.23;;;1.30;;
19733;SDS011;10018;51.230;7.860;2023-09-18T14:02:35;3.40;;;1.23;;
19733;SDS011;10018;51.230;7.860;2023-09-18T14:05:01;3.97;;;1.47;;
19733;SDS011;10018;51.230;7.860;2023-09-18T14:07:28;3.97;;;1.47;;
19733;SDS011;10018;51.230;7.860;2023-09-18T14:09:56;4.67;;;1.40;;
19733;SDS011;10018;51.230;7.860;2023-09-18T14:12:22;6.43;;;1.60;;
19733;SDS011;10018;51.230;7.860;2023-09-18T14:14:48;2.50;;;1.20;;
19733;SDS011;10018;51.230;7.860;2023-09-18T14:17:14;2.97;;;1.40;;
19733;SDS011;10018;51.230;7.860;2023-09-18T14:19:45;2.97;;;1.40;;
19733;SDS011;10018;51.230;7.860;2023-09-18T14:22:11;5.67;;;1.50;;
19733;SDS011;10018;51.230;7.860;2023-09-18T14:24:38;3.70;;;1.30;;
19733;SDS011;10018;51.230;7.860;2023-09-18T14:27:05;3.33;;;1.50;;
19733;SDS011;10018;51.230;7.860;2023-09-18T14:29:31;4.53;;;1.43;;
19733;SDS011;10018;51.230;7.860;2023-09-18T14:31:58;3.03;;;1.27;;
19733;SDS011;10018;51.230;7.860;2023-09-18T14:34:28;4.43;;;1.30;;
19733;SDS011;10018;51.230;7.860;2023-09-18T14:36:55;4.23;;;1.60;;
19733;SDS011;10018;51.230;7.860;2023-09-18T14:39:21;4.97;;;1.50;;
19733;SDS011;10018;51.230;7.860;2023-09-18T14:41:47;2.67;;;1.33;;
19733;SDS011;10018;51.230;7.860;2023-09-18T14:44:15;4.60;;;1.40;;
19733;SDS011;10018;51.230;7.860;2023-09-18T14:46:41;3.77;;;1.33;;
19733;SDS011;10018;51.230;7.860;2023-09-18T14:49:08;3.63;;;1.40;;
19733;SDS011;10018;51.230;7.860;2023-09-18T14:51:34;2.37;;;1.20;;
19733;SDS011;10018;51.230;7.860;2023-09-18T14:54:00;3.37;;;1.20;;
19733;SDS011;10018;51.230;7.860;2023-09-18T14:56:29;4.30;;;1.33;;
19733;SDS011;10018;51.230;7.860;2023-09-18T14:58:55;4.13;;;1.30;;
19733;SDS011;10018;51.230;7.860;2023-09-18T15:01:21;5.60;;;1.37;;